Time;durP1;ratioP1;P1;durP2;ratioP2;P2;SDS_P1;SDS_P2;PMS_P1;PMS_P2;Temp;Humidity;BMP_temperature;BMP_pressure;BME280_temperature;BME280_humidity;BME280_pressure;Samples;Min_cycle;Max_cycle;Signal;HPM_P1;HPM_P2
2023/06/13 00:00:32;;;;;;;4.63;3.37;;;18.20;99.90;;;;;;5115980;28;20200;-42
2023/06/13 00:02:58;;;;;;;6.80;3.60;;;18.20;99.90;;;;;;5115892;28;20166;-44
2023/06/13 00:05:24;;;;;;;4.10;3.27;;;18.10;99.90;;;;;;5115718;28;20206;-42
2023/06/13 00:07:50;;;;;;;7.67;3.80;;;18.00;99.90;;;;;;5115849;28;20179;-43
2023/06/13 00:10:16;;;;;;;6.23;3.50;;;18.00;99.90;;;;;;5115793;28;20178;-44
2023/06/13 00:12:44;;;;;;;3.93;3.50;;;17.90;99.90;;;;;;5115764;28;20177;-43
2023/06/13 00:15:10;;;;;;;4.13;3.33;;;17.90;99.90;;;;;;5116043;28;20608;-44
2023/06/13 00:17:36;;;;;;;4.43;3.60;;;17.80;99.90;;;;;;5115938;28;20189;-44
2023/06/13 00:20:04;;;;;;;4.93;3.70;;;17.80;99.90;;;;;;5115879;28;20258;-43
2023/06/13 00:22:30;;;;;;;4.27;3.40;;;17.80;99.90;;;;;;5115885;28;20189;-44
2023/06/13 00:24:55;;;;;;;4.57;4.00;;;17.70;99.90;;;;;;5115389;28;20682;-44
2023/06/13 00:27:21;;;;;;;5.03;3.40;;;17.60;99.90;;;;;;5115728;28;20170;-42
2023/06/13 00:29:47;;;;;;;6.77;3.50;;;17.60;99.90;;;;;;5115681;28;20170;-43
2023/06/13 00:32:12;;;;;;;4.97;3.53;;;17.60;99.90;;;;;;5115870;28;20534;-44
2023/06/13 00:34:38;;;;;;;4.00;3.60;;;17.50;99.90;;;;;;5115514;27;20194;-44
2023/06/13 00:37:05;;;;;;;5.13;3.60;;;17.40;99.90;;;;;;5115187;28;20182;-42
2023/06/13 00:39:30;;;;;;;3.80;3.10;;;17.40;99.90;;;;;;5115298;28;20162;-46
2023/06/13 00:41:56;;;;;;;4.87;3.07;;;17.40;99.90;;;;;;5115671;28;20175;-43
2023/06/13 00:44:22;;;;;;;3.73;3.27;;;17.30;99.90;;;;;;5114967;28;20201;-41
2023/06/13 00:46:48;;;;;;;6.33;3.60;;;17.30;99.90;;;;;;5115305;28;20223;-43
2023/06/13 00:49:15;;;;;;;6.17;3.87;;;17.20;99.90;;;;;;5115025;28;20170;-45
2023/06/13 00:51:42;;;;;;;7.03;3.50;;;17.10;99.90;;;;;;5114876;28;20661;-43
2023/06/13 00:54:10;;;;;;;4.57;3.50;;;17.10;99.90;;;;;;5115022;28;20197;-44
2023/06/13 00:56:36;;;;;;;5.50;4.10;;;17.10;99.90;;;;;;5115140;28;20193;-43
2023/06/13 00:59:03;;;;;;;7.23;3.70;;;17.10;99.90;;;;;;5115055;28;20239;-44
2023/06/13 01:01:32;;;;;;;3.73;3.43;;;17.10;99.90;;;;;;5115405;28;20244;-44
2023/06/13 01:03:59;;;;;;;4.23;3.37;;;17.10;99.90;;;;;;5114901;28;20290;-46
2023/06/13 01:06:28;;;;;;;5.70;3.47;;;17.10;99.90;;;;;;5114595;28;20663;-42
2023/06/13 01:08:58;;;;;;;6.13;3.50;;;17.00;99.90;;;;;;5114874;28;20261;-44
2023/06/13 01:11:48;;;;;;;6.80;3.60;;;17.10;99.90;;;;;;5114823;28;20219;-44
2023/06/13 01:14:46;;;;;;;5.33;3.57;;;17.10;99.90;;;;;;5114628;28;20250;-46
2023/06/13 01:17:24;;;;;;;4.30;3.40;;;17.00;99.90;;;;;;5114607;28;20588;-44
2023/06/13 01:19:57;;;;;;;4.87;3.23;;;17.00;99.90;;;;;;5115604;28;20158;-45
2023/06/13 01:22:31;;;;;;;5.90;3.27;;;17.00;99.90;;;;;;5114708;28;20192;-43
2023/06/13 01:25:03;;;;;;;4.20;3.10;;;17.00;99.90;;;;;;5114165;28;20212;-41
2023/06/13 01:27:29;;;;;;;6.13;3.43;;;16.90;99.90;;;;;;5114336;28;20162;-44
2023/06/13 01:29:56;;;;;;;9.17;3.27;;;16.90;99.90;;;;;;5114246;28;20198;-43
2023/06/13 01:32:24;;;;;;;4.27;3.30;;;16.90;99.90;;;;;;5114533;28;20166;-47
2023/06/13 01:34:50;;;;;;;4.27;3.10;;;16.90;99.90;;;;;;5114104;28;20194;-49
2023/06/13 01:37:15;;;;;;;3.67;3.27;;;16.90;99.90;;;;;;5114018;28;20185;-49
2023/06/13 01:39:43;;;;;;;5.20;3.33;;;16.80;99.90;;;;;;5114655;28;20713;-48
2023/06/13 01:42:08;;;;;;;6.90;3.47;;;16.70;99.90;;;;;;5114135;28;20674;-49
2023/06/13 01:44:34;;;;;;;4.23;3.33;;;16.70;99.90;;;;;;5114152;28;20190;-46
2023/06/13 01:47:09;;;;;;;6.23;3.23;;;16.60;99.90;;;;;;5113996;28;20706;-49
2023/06/13 01:49:47;;;;;;;6.40;3.30;;;16.60;99.90;;;;;;5113188;28;20173;-50
2023/06/13 01:52:25;;;;;;;5.23;3.37;;;16.60;99.90;;;;;;5114018;28;20163;-47
2023/06/13 01:55:00;;;;;;;4.07;3.33;;;16.60;99.90;;;;;;5114174;28;20320;-50
2023/06/13 01:57:31;;;;;;;4.07;3.23;;;16.50;99.90;;;;;;5114137;28;20168;-48
2023/06/13 01:59:57;;;;;;;5.00;3.50;;;16.50;99.90;;;;;;5114111;28;20162;-47
2023/06/13 02:02:23;;;;;;;6.13;3.53;;;16.50;99.90;;;;;;5113822;28;20197;-48
2023/06/13 02:04:49;;;;;;;4.33;2.90;;;16.40;99.90;;;;;;5113883;28;20214;-48
2023/06/13 02:07:15;;;;;;;4.03;2.90;;;16.40;99.90;;;;;;5113985;28;20174;-47
2023/06/13 02:09:40;;;;;;;6.07;3.50;;;16.30;99.90;;;;;;5113975;28;20181;-46
2023/06/13 02:12:07;;;;;;;4.87;3.40;;;16.20;99.90;;;;;;5113903;28;20166;-46
2023/06/13 02:14:32;;;;;;;3.97;3.23;;;16.10;99.90;;;;;;5113884;28;20678;-48
2023/06/13 02:16:59;;;;;;;3.87;3.30;;;16.00;99.90;;;;;;5113632;28;20304;-48
2023/06/13 02:19:25;;;;;;;7.67;3.60;;;15.90;99.90;;;;;;5113673;28;20166;-48
2023/06/13 02:21:51;;;;;;;4.90;3.87;;;15.80;99.90;;;;;;5113646;28;20170;-47
2023/06/13 02:24:18;;;;;;;3.50;3.20;;;15.70;99.90;;;;;;5113878;28;20197;-48
2023/06/13 02:26:44;;;;;;;9.93;3.30;;;15.70;99.90;;;;;;5113761;28;20209;-48
2023/06/13 02:29:10;;;;;;;4.10;3.50;;;15.60;99.90;;;;;;5113823;28;20228;-49
2023/06/13 02:31:37;;;;;;;3.93;3.00;;;15.60;99.90;;;;;;5113784;28;20268;-47
2023/06/13 02:34:04;;;;;;;5.83;2.87;;;15.50;99.90;;;;;;5113751;28;20194;-47
2023/06/13 02:36:29;;;;;;;4.03;3.20;;;15.50;99.90;;;;;;5113706;28;20569;-48
2023/06/13 02:38:55;;;;;;;6.30;3.57;;;15.50;99.90;;;;;;5113905;28;20193;-48
2023/06/13 02:41:20;;;;;;;5.47;3.33;;;15.40;99.90;;;;;;5113824;28;20591;-47
2023/06/13 02:43:46;;;;;;;11.40;3.33;;;15.40;99.90;;;;;;5113385;28;20201;-46
2023/06/13 02:46:11;;;;;;;6.10;3.40;;;15.30;99.90;;;;;;5113399;28;20226;-46
2023/06/13 02:48:37;;;;;;;9.07;3.80;;;15.30;99.90;;;;;;5113400;28;20229;-46
2023/06/13 02:51:03;;;;;;;7.53;3.67;;;15.20;99.90;;;;;;5113336;28;20261;-48
2023/06/13 02:53:28;;;;;;;11.47;3.63;;;15.20;99.90;;;;;;5113323;28;20193;-45
2023/06/13 02:55:54;;;;;;;10.77;4.70;;;15.20;99.90;;;;;;5113358;28;20242;-47
2023/06/13 02:58:20;;;;;;;12.80;5.40;;;15.10;99.90;;;;;;5113565;28;20227;-47
2023/06/13 03:00:48;;;;;;;9.03;4.73;;;15.20;99.90;;;;;;5114232;28;20186;-46
2023/06/13 03:03:16;;;;;;;15.07;5.23;;;15.20;99.90;;;;;;5117005;28;20202;-45
2023/06/13 03:05:44;;;;;;;16.70;4.63;;;15.20;99.90;;;;;;5117249;28;20240;-47
2023/06/13 03:08:11;;;;;;;12.00;4.60;;;15.20;99.90;;;;;;5117077;28;20173;-42
2023/06/13 03:10:37;;;;;;;17.43;4.37;;;15.30;99.90;;;;;;5116088;28;20174;-43
2023/06/13 03:13:02;;;;;;;10.90;4.40;;;15.30;99.90;;;;;;5117251;28;20260;-44
2023/06/13 03:15:28;;;;;;;9.70;4.50;;;15.30;99.90;;;;;;5117905;28;20218;-41
2023/06/13 03:17:53;;;;;;;11.57;4.23;;;15.40;99.90;;;;;;5116853;28;20174;-43
2023/06/13 03:20:21;;;;;;;6.43;4.80;;;15.30;99.90;;;;;;5117068;28;20269;-41
2023/06/13 03:22:46;;;;;;;9.57;4.63;;;15.30;99.90;;;;;;5116701;28;20169;-42
2023/06/13 03:25:13;;;;;;;9.50;4.23;;;15.20;99.90;;;;;;5116773;28;20205;-43
2023/06/13 03:27:38;;;;;;;8.53;4.47;;;15.20;99.90;;;;;;5116914;28;20253;-44
2023/06/13 03:30:05;;;;;;;14.00;4.43;;;15.20;99.90;;;;;;5116546;28;20197;-43
2023/06/13 03:32:30;;;;;;;12.40;4.33;;;15.10;99.90;;;;;;5116794;28;20231;-43
2023/06/13 03:34:56;;;;;;;11.90;4.40;;;15.00;99.90;;;;;;5116448;28;20194;-42
2023/06/13 03:37:22;;;;;;;15.23;4.67;;;15.00;99.90;;;;;;5116298;28;20193;-43
2023/06/13 03:39:47;;;;;;;14.10;4.70;;;14.90;99.90;;;;;;5116408;28;20178;-42
2023/06/13 03:42:13;;;;;;;20.97;5.00;;;15.00;99.90;;;;;;5116421;28;20182;-44
2023/06/13 03:44:39;;;;;;;9.77;4.43;;;14.90;99.90;;;;;;5116582;28;20322;-43
2023/06/13 03:47:05;;;;;;;12.83;4.53;;;14.90;99.90;;;;;;5116499;28;20198;-43
2023/06/13 03:49:30;;;;;;;10.10;4.63;;;14.90;99.90;;;;;;5116626;28;20174;-46
2023/06/13 03:51:56;;;;;;;16.53;5.10;;;14.80;99.90;;;;;;5116834;28;20209;-44
2023/06/13 03:54:21;;;;;;;15.20;4.90;;;14.80;99.90;;;;;;5116866;28;20217;-44
2023/06/13 03:56:48;;;;;;;11.43;5.10;;;14.80;99.90;;;;;;5116822;28;20542;-42
2023/06/13 03:59:14;;;;;;;20.80;5.23;;;14.80;99.90;;;;;;5116803;28;20186;-43
2023/06/13 04:01:41;;;;;;;14.30;5.17;;;14.70;99.90;;;;;;5116468;28;20185;-43
2023/06/13 04:04:08;;;;;;;15.67;4.17;;;14.70;99.90;;;;;;5117894;28;20190;-41
2023/06/13 04:06:33;;;;;;;10.73;4.50;;;14.70;99.90;;;;;;5116360;28;20213;-42
2023/06/13 04:08:59;;;;;;;15.90;5.17;;;14.60;99.90;;;;;;5115954;28;20178;-40
2023/06/13 04:11:25;;;;;;;19.47;5.10;;;14.60;99.90;;;;;;5116328;28;20619;-44
2023/06/13 04:13:50;;;;;;;8.90;4.80;;;14.70;99.90;;;;;;5115066;28;20194;-41
2023/06/13 04:16:16;;;;;;;19.33;4.90;;;14.70;99.90;;;;;;5116288;28;20171;-45
2023/06/13 04:18:42;;;;;;;10.83;4.67;;;14.70;99.90;;;;;;5115672;28;20635;-42
2023/06/13 04:21:08;;;;;;;16.87;4.40;;;14.70;99.90;;;;;;5116311;27;20598;-40
2023/06/13 04:23:34;;;;;;;17.03;5.77;;;14.70;99.90;;;;;;5115775;28;20186;-43
2023/06/13 04:26:02;;;;;;;15.77;4.73;;;14.80;99.90;;;;;;5115689;28;20206;-43
2023/06/13 04:28:29;;;;;;;12.07;4.97;;;14.80;99.90;;;;;;5115517;28;20189;-44
2023/06/13 04:30:56;;;;;;;15.27;5.13;;;14.80;99.90;;;;;;5115381;28;20169;-42
2023/06/13 04:33:24;;;;;;;17.50;4.70;;;14.90;99.90;;;;;;5115518;28;20202;-40
2023/06/13 04:35:50;;;;;;;12.80;4.37;;;14.90;99.90;;;;;;5115542;28;20178;-42
2023/06/13 04:38:21;;;;;;;20.03;5.07;;;15.00;99.90;;;;;;5115322;27;20192;-42
2023/06/13 04:40:47;;;;;;;16.00;5.33;;;15.00;99.90;;;;;;5115522;28;20189;-42
2023/06/13 04:43:17;;;;;;;19.50;4.70;;;15.10;99.90;;;;;;5115996;28;20182;-41
2023/06/13 04:45:46;;;;;;;10.17;4.80;;;15.10;99.90;;;;;;5116201;28;20241;-40
2023/06/13 04:48:12;;;;;;;20.13;5.50;;;15.20;99.90;;;;;;5116271;28;20206;-44
2023/06/13 04:50:41;;;;;;;8.60;4.83;;;15.20;99.90;;;;;;5115135;28;20202;-42
2023/06/13 04:53:11;;;;;;;14.70;5.00;;;15.30;99.90;;;;;;5114971;28;20166;-40
2023/06/13 04:55:38;;;;;;;14.80;4.80;;;15.40;99.90;;;;;;5115243;28;20178;-41
2023/06/13 04:58:04;;;;;;;16.83;5.23;;;15.40;99.90;;;;;;5114832;28;20227;-43
2023/06/13 05:00:30;;;;;;;17.73;5.20;;;15.50;99.90;;;;;;5114844;28;20261;-42
2023/06/13 05:02:56;;;;;;;13.13;5.20;;;15.50;99.90;;;;;;5115092;28;20613;-43
2023/06/13 05:05:22;;;;;;;12.50;5.20;;;15.60;99.90;;;;;;5114827;28;20232;-41
2023/06/13 05:07:55;;;;;;;12.10;4.97;;;15.60;99.90;;;;;;5114968;28;20257;-42
2023/06/13 05:10:24;;;;;;;14.67;4.60;;;15.70;99.90;;;;;;5114948;28;20533;-43
2023/06/13 05:12:49;;;;;;;12.97;4.17;;;15.70;99.90;;;;;;5114663;28;20249;-43
2023/06/13 05:15:16;;;;;;;12.50;4.60;;;15.80;99.90;;;;;;5115287;28;20267;-41
2023/06/13 05:17:45;;;;;;;8.40;4.67;;;15.90;99.90;;;;;;5114541;28;20304;-43
2023/06/13 05:20:11;;;;;;;15.00;4.83;;;16.00;99.90;;;;;;5114609;28;20183;-43
2023/06/13 05:22:41;;;;;;;5.70;4.10;;;16.10;99.90;;;;;;5114697;28;20205;-42
2023/06/13 05:25:11;;;;;;;5.90;3.93;;;16.20;99.90;;;;;;5114478;28;20205;-43
2023/06/13 05:27:37;;;;;;;8.77;4.10;;;16.30;99.90;;;;;;5114614;28;20162;-42
2023/06/13 05:30:06;;;;;;;6.23;4.10;;;16.30;99.90;;;;;;5114386;28;20202;-42
2023/06/13 05:32:32;;;;;;;8.67;4.03;;;16.50;99.90;;;;;;5114272;28;20249;-43
2023/06/13 05:34:57;;;;;;;13.53;4.40;;;16.60;99.90;;;;;;5114217;28;20236;-42
2023/06/13 05:37:23;;;;;;;6.83;4.27;;;16.70;99.90;;;;;;5114123;28;20680;-40
2023/06/13 05:39:49;;;;;;;9.60;4.57;;;16.80;99.90;;;;;;5114261;28;20706;-42
2023/06/13 05:42:14;;;;;;;6.33;3.93;;;16.90;99.90;;;;;;5114405;28;20272;-42
2023/06/13 05:44:40;;;;;;;11.40;4.47;;;17.00;99.90;;;;;;5113939;28;20243;-42
2023/06/13 05:47:06;;;;;;;5.53;3.80;;;17.10;99.90;;;;;;5114349;28;20203;-44
2023/06/13 05:49:31;;;;;;;8.80;3.77;;;17.30;99.90;;;;;;5114120;28;20174;-44
2023/06/13 05:51:57;;;;;;;5.93;4.10;;;17.40;99.90;;;;;;5114266;28;20530;-44
2023/06/13 05:54:22;;;;;;;6.30;4.50;;;17.40;99.90;;;;;;5113983;28;20566;-43
2023/06/13 05:56:48;;;;;;;5.40;3.97;;;17.60;99.90;;;;;;5113983;28;20192;-43
2023/06/13 05:59:14;;;;;;;8.47;4.13;;;17.70;99.90;;;;;;5114458;28;20181;-42
2023/06/13 06:01:43;;;;;;;9.40;4.37;;;17.80;99.90;;;;;;5114101;28;20193;-44
2023/06/13 06:04:09;;;;;;;8.53;4.03;;;18.00;99.90;;;;;;5113976;28;20206;-43
2023/06/13 06:06:35;;;;;;;12.63;4.07;;;18.10;99.90;;;;;;5113683;28;20201;-42
2023/06/13 06:09:01;;;;;;;6.70;4.40;;;18.30;99.90;;;;;;5113848;28;20170;-42
2023/06/13 06:11:27;;;;;;;10.57;4.03;;;18.50;99.90;;;;;;5113794;28;20178;-43
2023/06/13 06:13:52;;;;;;;6.30;4.23;;;18.60;99.90;;;;;;5113679;28;20240;-42
2023/06/13 06:16:18;;;;;;;8.40;4.70;;;18.90;99.90;;;;;;5113726;28;20182;-43
2023/06/13 06:18:44;;;;;;;5.40;4.13;;;19.00;99.90;;;;;;5113649;28;20179;-46
2023/06/13 06:21:09;;;;;;;5.83;3.77;;;19.20;99.90;;;;;;5113631;28;20178;-41
2023/06/13 06:23:36;;;;;;;7.57;4.13;;;19.40;99.90;;;;;;5113514;28;20204;-42
2023/06/13 06:26:02;;;;;;;5.00;4.00;;;19.70;99.90;;;;;;5113805;28;20263;-42
2023/06/13 06:28:27;;;;;;;8.93;4.23;;;19.90;99.90;;;;;;5113511;28;20210;-44
2023/06/13 06:30:53;;;;;;;6.00;3.57;;;20.10;99.90;;;;;;5113806;28;20178;-43
2023/06/13 06:33:20;;;;;;;9.23;3.93;;;20.20;99.90;;;;;;5113488;28;20546;-43
2023/06/13 06:35:45;;;;;;;22.33;4.10;;;20.40;99.90;;;;;;5114130;28;20189;-45
2023/06/13 06:38:11;;;;;;;7.00;3.97;;;20.60;99.90;;;;;;5117411;28;20202;-43
2023/06/13 06:40:36;;;;;;;5.83;4.13;;;20.70;99.90;;;;;;5117785;28;20193;-45
2023/06/13 06:43:02;;;;;;;4.60;3.57;;;20.90;99.90;;;;;;5117648;28;20183;-43
2023/06/13 06:45:27;;;;;;;7.23;4.43;;;21.10;99.90;;;;;;5117347;28;20697;-46
2023/06/13 06:47:53;;;;;;;6.20;3.97;;;21.20;99.90;;;;;;5117619;28;20174;-44
2023/06/13 06:50:18;;;;;;;6.40;3.90;;;21.30;99.90;;;;;;5117663;28;20181;-45
2023/06/13 06:52:44;;;;;;;6.10;4.00;;;21.30;99.90;;;;;;5117850;28;20176;-46
2023/06/13 06:55:10;;;;;;;5.53;4.10;;;21.50;99.90;;;;;;5117396;28;20206;-42
2023/06/13 06:57:35;;;;;;;10.93;3.80;;;21.60;99.90;;;;;;5117276;28;20253;-41
2023/06/13 07:00:01;;;;;;;4.87;3.73;;;21.70;99.90;;;;;;5117242;28;20174;-42
2023/06/13 07:02:27;;;;;;;10.40;4.23;;;21.80;99.90;;;;;;5117225;28;20174;-42
2023/06/13 07:04:52;;;;;;;4.90;3.70;;;21.90;99.90;;;;;;5116945;28;20650;-43
2023/06/13 07:07:18;;;;;;;5.60;3.97;;;22.10;99.90;;;;;;5117065;28;20219;-41
2023/06/13 07:09:43;;;;;;;7.97;3.63;;;22.20;99.90;;;;;;5117245;28;20190;-41
2023/06/13 07:12:09;;;;;;;6.73;4.20;;;22.20;99.90;;;;;;5116951;28;20638;-43
2023/06/13 07:14:35;;;;;;;5.47;3.67;;;22.40;99.90;;;;;;5116888;28;20613;-43
2023/06/13 07:17:01;;;;;;;6.97;3.87;;;22.50;99.90;;;;;;5117248;28;20223;-43
2023/06/13 07:19:26;;;;;;;4.23;3.67;;;22.60;99.90;;;;;;5115524;28;20277;-43
2023/06/13 07:21:52;;;;;;;4.17;3.47;;;22.80;99.90;;;;;;5117049;28;20223;-44
2023/06/13 07:24:18;;;;;;;4.37;3.93;;;22.90;99.90;;;;;;5116927;28;20194;-43
2023/06/13 07:26:43;;;;;;;4.50;3.40;;;23.10;99.90;;;;;;5116629;28;20209;-44
2023/06/13 07:29:09;;;;;;;7.77;3.53;;;23.10;99.90;;;;;;5116955;28;20635;-43
2023/06/13 07:31:36;;;;;;;6.57;3.90;;;23.30;99.90;;;;;;5117108;28;20178;-44
2023/06/13 07:34:02;;;;;;;6.57;3.97;;;23.40;99.90;;;;;;5116745;28;20198;-41
2023/06/13 07:36:27;;;;;;;6.07;3.30;;;23.50;99.90;;;;;;5116454;28;20180;-43
2023/06/13 07:38:53;;;;;;;5.57;3.73;;;23.50;99.90;;;;;;5116758;28;20190;-43
2023/06/13 07:41:19;;;;;;;9.50;3.57;;;23.60;99.90;;;;;;5116428;28;20206;-44
2023/06/13 07:43:44;;;;;;;6.47;3.73;;;23.80;99.90;;;;;;5116250;28;20200;-43
2023/06/13 07:46:10;;;;;;;6.47;3.50;;;23.80;99.90;;;;;;5116218;28;20198;-41
2023/06/13 07:48:35;;;;;;;3.70;3.20;;;23.90;99.90;;;;;;5115237;28;20590;-42
2023/06/13 07:51:02;;;;;;;3.60;3.30;;;24.00;99.90;;;;;;5116462;28;20258;-45
2023/06/13 07:53:27;;;;;;;6.70;3.50;;;24.00;99.90;;;;;;5116418;28;20174;-42
2023/06/13 07:55:55;;;;;;;4.57;3.10;;;24.10;99.90;;;;;;5116906;28;20227;-43
2023/06/13 07:58:21;;;;;;;4.77;3.13;;;24.30;99.90;;;;;;5116128;28;20622;-44
2023/06/13 08:00:46;;;;;;;4.33;3.30;;;24.40;99.90;;;;;;5116389;28;20233;-44
2023/06/13 08:03:12;;;;;;;6.13;3.17;;;24.50;99.90;;;;;;5116189;28;20182;-43
2023/06/13 08:05:37;;;;;;;3.77;3.40;;;24.50;99.90;;;;;;5114710;28;20279;-44
2023/06/13 08:08:03;;;;;;;6.07;3.47;;;24.60;99.90;;;;;;5116304;28;20161;-43
2023/06/13 08:10:29;;;;;;;5.73;3.43;;;24.60;99.90;;;;;;5116141;27;20175;-43
2023/06/13 08:12:54;;;;;;;5.30;3.00;;;24.80;99.90;;;;;;5116040;28;20515;-44
2023/06/13 08:15:20;;;;;;;4.50;3.30;;;24.90;99.90;;;;;;5116007;28;20206;-44
2023/06/13 08:17:46;;;;;;;5.87;3.30;;;25.00;99.90;;;;;;5115968;28;20512;-43
2023/06/13 08:20:12;;;;;;;6.53;3.77;;;25.10;99.90;;;;;;5116460;28;20223;-43
2023/06/13 08:22:39;;;;;;;4.80;3.33;;;25.20;99.90;;;;;;5115871;28;20287;-44
2023/06/13 08:25:08;;;;;;;9.67;3.30;;;25.20;99.90;;;;;;5115686;28;20567;-43
2023/06/13 08:27:35;;;;;;;6.70;3.17;;;25.20;99.70;;;;;;5115485;28;20166;-42
2023/06/13 08:30:03;;;;;;;4.63;3.13;;;25.20;99.90;;;;;;5115666;28;20175;-44
2023/06/13 08:32:29;;;;;;;7.03;3.30;;;25.40;99.90;;;;;;5115422;28;20174;-43
2023/06/13 08:34:55;;;;;;;6.07;3.10;;;25.50;99.90;;;;;;5114277;28;20194;-45
2023/06/13 08:37:20;;;;;;;4.10;3.10;;;25.70;99.90;;;;;;5115390;28;20221;-45
2023/06/13 08:39:46;;;;;;;3.50;3.13;;;25.70;99.90;;;;;;5115464;28;20174;-43
2023/06/13 08:42:12;;;;;;;3.73;3.07;;;25.80;99.90;;;;;;5115588;28;20657;-45
2023/06/13 08:44:39;;;;;;;5.23;2.97;;;25.80;99.90;;;;;;5115422;28;20205;-44
2023/06/13 08:47:05;;;;;;;5.17;3.20;;;25.80;99.70;;;;;;5115143;28;20174;-45
2023/06/13 08:49:31;;;;;;;5.27;3.30;;;25.90;99.90;;;;;;5115390;28;20519;-43
2023/06/13 08:51:59;;;;;;;7.60;3.23;;;25.90;98.70;;;;;;5115357;28;20185;-45
2023/06/13 08:54:27;;;;;;;6.70;3.00;;;26.00;99.50;;;;;;5113729;28;20613;-45
2023/06/13 08:56:54;;;;;;;4.07;2.97;;;26.00;99.90;;;;;;5115202;28;20166;-47
2023/06/13 08:59:30;;;;;;;8.20;2.87;;;26.00;97.70;;;;;;5114764;28;20547;-45
2023/06/13 09:01:57;;;;;;;5.97;3.10;;;25.90;96.50;;;;;;5115101;28;20171;-46
2023/06/13 09:04:27;;;;;;;4.10;3.10;;;25.90;97.30;;;;;;5114767;28;20186;-44
2023/06/13 09:06:56;;;;;;;5.00;3.57;;;26.00;97.90;;;;;;5114946;28;20202;-45
2023/06/13 09:09:24;;;;;;;4.77;3.37;;;26.10;99.40;;;;;;5114963;28;20234;-44
2023/06/13 09:11:51;;;;;;;4.63;3.33;;;26.20;97.60;;;;;;5114705;27;20174;-44
2023/06/13 09:14:18;;;;;;;7.37;3.20;;;26.30;97.10;;;;;;5114551;28;20273;-44
2023/06/13 09:16:45;;;;;;;5.53;3.37;;;26.40;98.40;;;;;;5114810;28;20178;-45
2023/06/13 09:19:11;;;;;;;6.47;3.27;;;26.50;98.40;;;;;;5114538;28;20155;-45
2023/06/13 09:21:38;;;;;;;4.83;3.37;;;26.60;98.20;;;;;;5114449;28;20171;-43
2023/06/13 09:24:06;;;;;;;4.30;3.03;;;26.70;97.40;;;;;;5114393;28;20228;-45
2023/06/13 09:26:32;;;;;;;10.53;3.83;;;26.80;98.10;;;;;;5114551;28;20198;-46
2023/06/13 09:28:58;;;;;;;4.30;3.60;;;26.80;97.70;;;;;;5114366;28;20195;-43
2023/06/13 09:31:28;;;;;;;4.03;3.40;;;26.90;98.40;;;;;;5114292;28;20660;-44
2023/06/13 09:33:54;;;;;;;5.70;3.88;;;26.90;98.70;;;;;;5114462;28;20251;-45
2023/06/13 09:36:22;;;;;;;5.63;3.78;;;27.00;97.20;;;;;;5114684;28;20193;-45
2023/06/13 09:38:48;;;;;;;5.22;4.00;;;27.00;97.00;;;;;;5114038;28;20202;-44
2023/06/13 09:41:14;;;;;;;9.10;3.80;;;27.00;98.30;;;;;;5114414;28;20599;-45
2023/06/13 09:43:40;;;;;;;6.38;4.00;;;27.20;99.30;;;;;;5114050;28;20210;-45
2023/06/13 09:46:10;;;;;;;7.13;4.00;;;27.20;98.10;;;;;;5113925;28;20700;-45
2023/06/13 09:48:36;;;;;;;4.90;3.60;;;27.20;96.50;;;;;;5114291;28;20514;-44
2023/06/13 09:51:09;;;;;;;4.25;3.53;;;27.20;97.40;;;;;;5114054;28;20173;-46
2023/06/13 09:53:35;;;;;;;5.45;3.50;;;27.30;95.00;;;;;;5114124;28;20282;-46
2023/06/13 09:56:00;;;;;;;3.72;3.40;;;27.20;96.00;;;;;;5114251;28;20261;-46
2023/06/13 09:58:27;;;;;;;4.97;3.33;;;27.20;96.50;;;;;;5114228;28;20622;-45
2023/06/13 10:00:59;;;;;;;3.78;3.35;;;27.20;95.40;;;;;;5114928;28;20189;-46
2023/06/13 10:03:27;;;;;;;6.65;3.72;;;27.20;95.60;;;;;;5114009;28;20178;-45
2023/06/13 10:05:53;;;;;;;10.27;3.33;;;27.30;95.50;;;;;;5113803;28;20276;-45
2023/06/13 10:08:19;;;;;;;5.35;3.88;;;27.30;95.60;;;;;;5113823;28;20170;-46
2023/06/13 10:10:45;;;;;;;4.53;3.17;;;27.40;96.00;;;;;;5113101;28;20518;-46
2023/06/13 10:13:15;;;;;;;4.63;3.45;;;27.40;96.70;;;;;;5113626;28;20177;-46
2023/06/13 10:15:48;;;;;;;5.60;3.00;;;27.50;96.40;;;;;;5114016;28;20257;-45
2023/06/13 10:18:18;;;;;;;5.78;3.13;;;27.60;95.40;;;;;;5113743;28;20645;-46
2023/06/13 10:20:47;;;;;;;6.30;3.63;;;27.70;95.50;;;;;;5113649;28;20280;-46
2023/06/13 10:23:15;;;;;;;6.05;3.72;;;27.70;95.80;;;;;;5113516;28;20269;-45
2023/06/13 10:25:44;;;;;;;4.78;3.30;;;27.80;97.30;;;;;;5113546;28;20565;-45
2023/06/13 10:28:43;;;;;;;7.65;3.47;;;27.80;95.20;;;;;;5113776;28;20224;-46
2023/06/13 10:31:28;;;;;;;4.07;3.08;;;27.90;95.70;;;;;;5096767;28;20268;-44
2023/06/13 10:34:23;;;;;;;5.43;3.38;;;28.00;97.10;;;;;;5113759;28;20278;-44
2023/06/13 10:37:30;;;;;;;8.27;3.40;;;28.10;94.60;;;;;;5113565;28;20190;-45
2023/06/13 10:40:20;;;;;;;4.72;3.38;;;28.10;94.60;;;;;;5113774;28;20185;-45
2023/06/13 10:42:48;;;;;;;7.50;3.58;;;28.20;94.40;;;;;;5113835;28;20170;-46
2023/06/13 10:45:19;;;;;;;5.20;3.45;;;28.30;94.50;;;;;;5113319;28;20289;-44
2023/06/13 10:47:45;;;;;;;4.57;3.60;;;28.30;93.30;;;;;;5113444;28;20211;-45
2023/06/13 10:50:14;;;;;;;5.43;3.50;;;28.40;93.60;;;;;;5113441;28;20173;-45
2023/06/13 10:52:48;;;;;;;8.45;3.63;;;28.50;94.30;;;;;;5113337;28;20174;-45
2023/06/13 10:55:24;;;;;;;7.90;3.83;;;28.40;92.30;;;;;;5113673;28;20236;-45
2023/06/13 10:57:56;;;;;;;6.15;3.90;;;28.50;93.00;;;;;;5113674;28;20189;-45
2023/06/13 11:00:37;;;;;;;5.32;3.50;;;28.40;92.00;;;;;;5113435;28;20290;-51
2023/06/13 11:03:13;;;;;;;7.10;3.30;;;28.50;93.00;;;;;;5113584;28;20202;-51
2023/06/13 11:05:44;;;;;;;4.72;3.40;;;28.60;93.50;;;;;;5113443;28;20561;-52
2023/06/13 11:08:18;;;;;;;4.38;2.72;;;28.70;94.10;;;;;;5113761;28;20167;-52
2023/06/13 11:10:46;;;;;;;4.22;3.63;;;28.90;93.60;;;;;;5113228;28;20214;-52
2023/06/13 11:13:22;;;;;;;7.18;3.30;;;28.90;92.20;;;;;;5113394;28;20638;-52
2023/06/13 11:15:50;;;;;;;4.38;3.25;;;28.90;92.60;;;;;;5113168;28;20189;-52
2023/06/13 11:18:19;;;;;;;7.13;3.13;;;28.90;92.00;;;;;;5113099;28;20182;-51
2023/06/13 11:20:55;;;;;;;3.45;3.08;;;28.80;92.30;;;;;;5113245;28;20259;-52
2023/06/13 11:23:34;;;;;;;4.93;3.85;;;28.60;88.70;;;;;;5114883;28;20173;-51
2023/06/13 11:26:01;;;;;;;5.28;3.75;;;28.40;90.80;;;;;;5116903;28;20201;-52
2023/06/13 11:28:26;;;;;;;4.68;3.80;;;28.40;89.20;;;;;;5116886;28;20175;-52
2023/06/13 11:30:52;;;;;;;7.90;4.45;;;28.20;86.20;;;;;;5116757;28;20778;-51
2023/06/13 11:33:19;;;;;;;4.53;3.28;;;28.10;87.20;;;;;;5117065;28;20173;-51
2023/06/13 11:35:53;;;;;;;6.32;3.03;;;27.90;87.80;;;;;;5116818;28;20208;-51
2023/06/13 11:38:21;;;;;;;6.65;3.92;;;28.00;89.50;;;;;;5116348;28;20569;-51
2023/06/13 11:40:54;;;;;;;6.22;3.25;;;28.20;86.20;;;;;;5116438;28;20177;-51
2023/06/13 11:43:20;;;;;;;5.57;3.38;;;28.20;90.00;;;;;;5116346;28;20178;-52
2023/06/13 11:45:46;;;;;;;7.22;3.53;;;28.20;91.20;;;;;;5116315;28;20202;-50
2023/06/13 11:48:17;;;;;;;6.43;3.47;;;28.40;90.20;;;;;;5116738;28;20186;-51
2023/06/13 11:50:44;;;;;;;8.32;3.50;;;28.30;87.90;;;;;;5116637;28;20154;-51
2023/06/13 11:53:11;;;;;;;7.25;3.63;;;28.30;87.30;;;;;;5116441;28;20174;-50
2023/06/13 11:55:36;;;;;;;3.78;3.35;;;28.20;86.40;;;;;;5116165;28;20213;-50
2023/06/13 11:58:03;;;;;;;4.53;3.22;;;28.10;86.00;;;;;;5116392;28;20206;-51
2023/06/13 12:00:28;;;;;;;5.10;3.80;;;28.00;83.80;;;;;;5116271;28;20179;-51
2023/06/13 12:02:58;;;;;;;7.18;3.85;;;27.80;83.70;;;;;;5116093;28;20526;-51
2023/06/13 12:05:24;;;;;;;4.00;3.00;;;28.00;88.90;;;;;;5116452;28;20612;-51
2023/06/13 12:07:51;;;;;;;4.70;3.45;;;28.10;91.10;;;;;;5116223;28;20174;-50
2023/06/13 12:10:17;;;;;;;3.58;3.10;;;28.40;90.00;;;;;;5115996;28;20669;-50
2023/06/13 12:12:58;;;;;;;7.25;3.20;;;28.70;90.00;;;;;;5115880;28;20661;-51
2023/06/13 12:15:24;;;;;;;3.53;3.17;;;29.00;90.50;;;;;;5114918;28;20217;-50
2023/06/13 12:17:59;;;;;;;4.10;3.70;;;29.20;88.60;;;;;;5116017;28;20181;-50
2023/06/13 12:20:28;;;;;;;5.60;3.50;;;29.20;81.70;;;;;;5115742;28;20763;-51
2023/06/13 12:22:58;;;;;;;9.25;3.58;;;29.10;88.80;;;;;;5115654;28;20199;-50
2023/06/13 12:25:27;;;;;;;5.63;3.10;;;29.30;83.40;;;;;;5115778;28;20206;-50
2023/06/13 12:27:55;;;;;;;5.03;3.38;;;29.30;84.10;;;;;;5115590;28;20658;-51
2023/06/13 12:30:21;;;;;;;4.93;3.80;;;29.30;86.10;;;;;;5115628;28;20177;-51
2023/06/13 12:32:48;;;;;;;5.15;3.58;;;29.50;89.40;;;;;;5115459;28;20168;-52
2023/06/13 12:35:19;;;;;;;11.23;3.60;;;29.70;86.00;;;;;;5115025;28;20213;-50
2023/06/13 12:37:54;;;;;;;6.05;3.33;;;29.80;85.50;;;;;;5113926;28;20216;-50
2023/06/13 12:40:29;;;;;;;5.03;3.53;;;29.80;86.60;;;;;;5115731;28;20176;-51
2023/06/13 12:42:56;;;;;;;5.80;3.40;;;29.90;86.30;;;;;;5115528;28;20253;-49
2023/06/13 12:45:22;;;;;;;8.10;3.50;;;29.90;85.10;;;;;;5113915;28;20280;-51
2023/06/13 12:47:47;;;;;;;4.22;3.50;;;30.00;84.20;;;;;;5115358;28;20677;-51